createdAt,value
2019-04-23T00:03:12.799Z,4.20
2019-04-23T00:05:48.651Z,6.00
2019-04-23T00:08:19.340Z,2.20
2019-04-23T00:11:05.664Z,3.20
2019-04-23T00:13:37.124Z,4.00
2019-04-23T00:18:53.745Z,3.00
2019-04-23T00:25:03.163Z,4.00
2019-04-23T00:30:40.075Z,4.00
2019-04-23T00:33:01.610Z,4.00
2019-04-23T00:35:25.779Z,2.20
2019-04-23T00:37:55.062Z,7.80
2019-04-23T00:40:25.882Z,3.00
2019-04-23T00:43:00.669Z,5.60
2019-04-23T00:45:33.298Z,4.00
2019-04-23T00:48:25.908Z,5.20
2019-04-23T00:50:52.231Z,5.60
2019-04-23T00:53:46.715Z,3.60
2019-04-23T00:56:21.821Z,6.00
2019-04-23T00:58:49.594Z,3.80
2019-04-23T01:01:00.493Z,5.60
2019-04-23T01:03:25.402Z,4.00
2019-04-23T01:06:04.606Z,4.80
2019-04-23T01:08:29.685Z,3.00
2019-04-23T01:16:11.267Z,3.60
2019-04-23T01:18:58.176Z,3.60
2019-04-23T01:24:14.126Z,6.20
2019-04-23T01:30:00.037Z,3.00
2019-04-23T01:32:25.712Z,4.00
2019-04-23T01:35:03.659Z,5.20
2019-04-23T01:37:45.129Z,4.00
2019-04-23T01:40:12.365Z,3.60
2019-04-23T01:45:25.960Z,3.80
2019-04-23T01:47:57.669Z,1.80
2019-04-23T01:50:30.075Z,4.40
2019-04-23T01:55:46.557Z,3.00
2019-04-23T02:01:08.736Z,6.00
2019-04-23T02:03:34.494Z,4.00
2019-04-23T02:08:32.338Z,3.00
2019-04-23T02:11:04.845Z,3.60
2019-04-23T02:13:56.783Z,3.00
2019-04-23T02:16:21.948Z,4.00
2019-04-23T02:18:56.779Z,4.00
2019-04-23T02:21:38.422Z,4.00
2019-04-23T02:27:24.898Z,4.00
2019-04-23T02:32:19.165Z,6.40
2019-04-23T02:40:01.332Z,0.00
2019-04-23T02:42:40.080Z,6.00
2019-04-23T02:44:45.219Z,7.00
2019-04-23T02:49:54.859Z,8.20
2019-04-23T02:55:08.406Z,5.20
2019-04-23T02:57:39.684Z,6.00
2019-04-23T03:00:26.241Z,6.20
2019-04-23T03:02:45.191Z,4.80
2019-04-23T03:05:19.884Z,6.60
2019-04-23T03:07:53.304Z,7.00
2019-04-23T03:10:41.984Z,5.60
2019-04-23T03:13:27.867Z,8.60
2019-04-23T03:16:08.360Z,6.60
2019-04-23T03:21:42.574Z,6.80
2019-04-23T03:29:55.001Z,6.00
2019-04-23T03:32:48.256Z,5.20
2019-04-23T03:35:30.964Z,6.60
2019-04-23T03:40:15.852Z,6.80
2019-04-23T03:42:47.363Z,7.00
2019-04-23T03:47:54.449Z,7.40
2019-04-23T03:53:10.901Z,6.00
2019-04-23T04:01:04.166Z,6.60
2019-04-23T04:06:05.498Z,6.60
2019-04-23T04:13:42.426Z,8.60
2019-04-23T04:21:45.850Z,7.80
2019-04-23T04:29:11.799Z,10.60
2019-04-23T04:37:32.091Z,9.00
2019-04-23T04:39:53.107Z,7.00
2019-04-23T04:43:00.436Z,9.00
2019-04-23T04:45:30.367Z,7.00
2019-04-23T04:47:44.531Z,6.00
2019-04-23T04:50:46.959Z,9.40
2019-04-23T04:53:24.938Z,10.00
2019-04-23T04:55:42.243Z,11.20
2019-04-23T04:58:07.295Z,8.20
2019-04-23T05:00:59.730Z,10.40
2019-04-23T05:06:01.443Z,7.40
2019-04-23T05:08:07.224Z,9.80
2019-04-23T05:10:49.714Z,10.00
2019-04-23T05:13:41.193Z,9.00
2019-04-23T05:15:50.219Z,10.00
2019-04-23T05:18:49.541Z,6.20
2019-04-23T05:21:18.171Z,9.40
2019-04-23T05:23:42.807Z,11.60
2019-04-23T05:26:08.506Z,8.60
2019-04-23T05:28:40.933Z,10.80
2019-04-23T05:31:08.597Z,9.80
2019-04-23T05:33:38.145Z,9.00
2019-04-23T05:36:22.712Z,12.00
2019-04-23T05:41:10.097Z,10.40
2019-04-23T05:46:09.766Z,10.00
2019-04-23T05:48:35.297Z,10.40
2019-04-23T05:51:11.503Z,9.20
2019-04-23T05:56:06.652Z,7.80
2019-04-23T05:58:36.900Z,6.40
2019-04-23T06:01:20.681Z,11.20
2019-04-23T06:03:29.351Z,7.00
2019-04-23T06:06:10.850Z,12.60
2019-04-23T06:08:38.496Z,14.20
2019-04-23T06:11:02.232Z,10.20
2019-04-23T06:13:35.955Z,9.80
2019-04-23T06:15:58.075Z,7.80
2019-04-23T06:18:49.731Z,10.00
2019-04-23T06:21:07.398Z,10.00
2019-04-23T06:23:37.939Z,11.60
2019-04-23T06:28:31.655Z,16.80
2019-04-23T06:31:01.633Z,13.00
2019-04-23T06:33:32.231Z,17.20
2019-04-23T06:36:08.612Z,14.60
2019-04-23T06:38:40.412Z,12.60
2019-04-23T06:41:13.584Z,13.00
2019-04-23T06:44:06.083Z,12.80
2019-04-23T06:46:30.710Z,12.40
2019-04-23T06:48:54.851Z,12.80
2019-04-23T06:51:27.187Z,13.80
2019-04-23T06:53:59.948Z,13.00
2019-04-23T06:56:26.524Z,16.40
2019-04-23T06:58:55.152Z,10.40
2019-04-23T07:01:19.131Z,12.80
2019-04-23T07:16:14.931Z,12.40
2019-04-23T07:18:46.466Z,20.20
2019-04-23T07:21:27.999Z,15.40
2019-04-23T07:23:54.441Z,16.00
2019-04-23T07:28:50.233Z,15.40
2019-04-23T07:33:52.239Z,13.00
2019-04-23T07:36:25.886Z,15.20
2019-04-23T07:42:03.078Z,7.40
2019-04-23T07:47:51.953Z,15.40
2019-04-23T07:50:23.342Z,15.80
2019-04-23T07:52:51.504Z,12.60
2019-04-23T07:55:19.415Z,11.40
2019-04-23T07:57:57.023Z,12.00
2019-04-23T08:00:20.525Z,11.60
2019-04-23T08:02:38.048Z,9.00
2019-04-23T08:05:29.295Z,14.40
2019-04-23T08:07:44.141Z,10.40
2019-04-23T08:10:17.055Z,12.60
2019-04-23T08:12:59.594Z,12.20
2019-04-23T08:15:18.151Z,11.20
2019-04-23T08:17:35.843Z,13.40
2019-04-23T08:20:29.946Z,15.20
2019-04-23T08:22:40.780Z,12.20
2019-04-23T08:25:17.857Z,13.00
2019-04-23T08:27:48.650Z,13.00
2019-04-23T08:30:21.983Z,13.80
2019-04-23T08:32:55.365Z,12.00
2019-04-23T08:35:13.796Z,12.80
2019-04-23T08:40:20.157Z,12.60
2019-04-23T08:45:22.701Z,15.60
2019-04-23T08:48:23.027Z,11.80
2019-04-23T08:50:47.839Z,15.00
2019-04-23T08:53:30.886Z,17.60
2019-04-23T08:55:49.945Z,13.60
2019-04-23T08:58:23.614Z,15.00
2019-04-23T09:00:52.626Z,16.80
2019-04-23T09:03:24.821Z,13.80
2019-04-23T09:05:53.002Z,15.60
2019-04-23T09:08:33.152Z,15.20
2019-04-23T09:10:50.133Z,17.20
2019-04-23T09:13:40.200Z,8.20
2019-04-23T09:18:16.675Z,15.20
2019-04-23T09:20:37.181Z,16.40
2019-04-23T09:23:21.121Z,19.00
2019-04-23T09:25:47.784Z,18.00
2019-04-23T09:28:24.139Z,16.20
2019-04-23T09:30:49.344Z,13.00
2019-04-23T09:33:46.885Z,20.00
2019-04-23T09:39:20.541Z,15.80
2019-04-23T09:42:08.901Z,18.00
2019-04-23T09:45:03.706Z,20.00
2019-04-23T09:47:50.484Z,15.20
2019-04-23T09:50:15.727Z,14.60
2019-04-23T09:52:59.061Z,18.20
2019-04-23T09:55:24.496Z,17.00
2019-04-23T09:57:51.964Z,13.40
2019-04-23T10:00:25.255Z,17.60
2019-04-23T10:02:34.025Z,15.20
2019-04-23T10:05:22.394Z,18.40
2019-04-23T10:07:47.130Z,15.60
2019-04-23T10:10:07.978Z,15.40
2019-04-23T10:12:39.987Z,9.60
2019-04-23T10:15:13.745Z,16.40
2019-04-23T10:17:38.023Z,18.20
2019-04-23T10:20:06.828Z,15.00
2019-04-23T10:22:37.593Z,19.40
2019-04-23T10:25:04.080Z,19.20
2019-04-23T10:27:32.921Z,20.80
2019-04-23T10:30:03.962Z,23.20
2019-04-23T10:32:35.871Z,17.20
2019-04-23T10:35:14.693Z,17.60
2019-04-23T10:37:46.046Z,16.20
2019-04-23T10:40:07.390Z,19.60
2019-04-23T10:42:35.669Z,15.20
2019-04-23T10:45:44.782Z,15.00
2019-04-23T10:48:41.484Z,19.40
2019-04-23T10:51:22.715Z,17.40
2019-04-23T10:53:52.251Z,19.00
2019-04-23T10:58:45.931Z,18.20
2019-04-23T11:01:35.821Z,17.60
2019-04-23T11:04:02.856Z,18.00
2019-04-23T11:06:23.602Z,21.00
2019-04-23T11:08:42.466Z,16.20
2019-04-23T11:11:25.501Z,18.60
2019-04-23T11:13:53.040Z,18.40
2019-04-23T11:21:23.616Z,18.00
2019-04-23T11:23:49.723Z,20.60
2019-04-23T11:26:25.649Z,20.20
2019-04-23T11:28:45.111Z,18.00
2019-04-23T11:31:31.217Z,19.80
2019-04-23T11:34:19.977Z,17.00
2019-04-23T11:36:49.831Z,18.20
2019-04-23T11:38:58.450Z,20.60
2019-04-23T11:41:36.917Z,17.20
2019-04-23T11:43:58.895Z,18.60
2019-04-23T11:46:51.303Z,19.20
2019-04-23T11:49:22.537Z,21.00
2019-04-23T11:51:46.040Z,16.60
2019-04-23T11:54:01.645Z,17.00
2019-04-23T11:56:51.480Z,17.40
2019-04-23T11:59:04.735Z,18.60
2019-04-23T12:02:00.736Z,20.40
2019-04-23T12:05:20.463Z,14.00
2019-04-23T12:08:18.829Z,17.60
2019-04-23T12:10:39.105Z,18.80
2019-04-23T12:13:10.514Z,18.40
2019-04-23T12:15:32.726Z,18.00
2019-04-23T12:18:19.488Z,20.20
2019-04-23T12:20:32.054Z,18.00
2019-04-23T12:23:28.201Z,18.00
2019-04-23T12:27:53.954Z,17.20
2019-04-23T12:35:38.996Z,17.80
2019-04-23T12:38:23.925Z,16.40
2019-04-23T12:40:56.330Z,24.20
2019-04-23T12:43:14.546Z,15.40
2019-04-23T12:45:50.466Z,14.60
2019-04-23T12:48:28.203Z,11.80
2019-04-23T12:50:49.976Z,15.00
2019-04-23T12:53:20.220Z,17.40
2019-04-23T12:55:43.845Z,15.00
2019-04-23T12:58:19.282Z,12.20
2019-04-23T13:00:51.559Z,16.00
2019-04-23T13:05:37.488Z,13.80
2019-04-23T13:08:31.958Z,16.60
2019-04-23T13:10:45.384Z,13.20
2019-04-23T13:13:25.714Z,12.00
2019-04-23T13:15:48.853Z,13.00
2019-04-23T13:18:26.842Z,13.60
2019-04-23T13:20:46.825Z,13.60
2019-04-23T13:23:22.144Z,13.00
2019-04-23T13:26:11.749Z,16.00
2019-04-23T13:28:49.598Z,12.20
2019-04-23T13:31:34.678Z,18.60
2019-04-23T13:36:32.296Z,12.20
2019-04-23T13:38:47.254Z,14.20
2019-04-23T13:41:27.891Z,16.40
2019-04-23T13:46:28.124Z,18.00
2019-04-23T13:48:53.655Z,16.00
2019-04-23T13:51:26.006Z,16.60
2019-04-23T13:58:59.833Z,15.60
2019-04-23T14:04:14.121Z,13.80
2019-04-23T14:09:34.373Z,15.60
2019-04-23T14:11:38.633Z,15.80
2019-04-23T14:16:34.084Z,15.40
2019-04-23T14:26:38.412Z,16.80
2019-04-23T14:28:59.300Z,17.00
2019-04-23T14:31:28.457Z,15.20
2019-04-23T14:34:04.862Z,16.80
2019-04-23T14:36:39.342Z,3.80
2019-04-23T14:41:26.222Z,16.80
2019-04-23T14:44:10.793Z,16.60
2019-04-23T14:49:04.277Z,18.80
2019-04-23T14:51:38.842Z,15.40
2019-04-23T14:54:08.446Z,15.00
2019-04-23T14:56:41.963Z,16.60
2019-04-23T15:01:39.881Z,10.40
2019-04-23T15:04:01.604Z,15.20
2019-04-23T15:09:19.685Z,21.00
2019-04-23T15:11:45.332Z,15.80
2019-04-23T15:14:10.002Z,20.40
2019-04-23T15:19:28.530Z,16.40
2019-04-23T15:24:32.784Z,17.00
2019-04-23T15:29:06.999Z,14.60
2019-04-23T15:31:55.609Z,20.00
2019-04-23T15:34:20.333Z,18.20
2019-04-23T15:37:01.094Z,17.60
2019-04-23T15:41:59.266Z,17.80
2019-04-23T15:44:16.781Z,17.20
2019-04-23T15:46:56.573Z,18.80
2019-04-23T15:49:28.872Z,14.00
2019-04-23T15:54:25.294Z,20.00
2019-04-23T15:59:27.609Z,20.00
2019-04-23T16:01:41.100Z,19.80
2019-04-23T16:03:53.758Z,16.00
2019-04-23T16:06:26.334Z,18.20
2019-04-23T16:09:09.669Z,18.60
2019-04-23T16:14:22.485Z,19.40
2019-04-23T16:22:07.251Z,16.80
2019-04-23T16:24:43.299Z,17.80
2019-04-23T16:32:26.381Z,22.80
2019-04-23T16:35:15.579Z,17.00
2019-04-23T16:37:38.851Z,20.20
2019-04-23T16:40:19.898Z,20.00
2019-04-23T16:42:47.849Z,17.80
2019-04-23T16:45:29.361Z,18.00
2019-04-23T16:47:46.704Z,18.80
2019-04-23T16:50:18.267Z,15.60
2019-04-23T16:52:53.685Z,17.60
2019-04-23T16:55:16.645Z,18.00
2019-04-23T16:57:54.545Z,18.20
2019-04-23T17:00:44.432Z,22.00
2019-04-23T17:02:54.970Z,23.20
2019-04-23T17:08:09.515Z,21.40
2019-04-23T17:10:23.358Z,20.20
2019-04-23T17:12:51.954Z,16.20
2019-04-23T17:15:21.186Z,14.60
2019-04-23T17:17:46.691Z,21.60
2019-04-23T17:20:16.686Z,23.00
2019-04-23T17:22:46.891Z,17.60
2019-04-23T17:25:26.181Z,19.40
2019-04-23T17:27:59.042Z,18.60
2019-04-23T17:35:55.089Z,20.00
2019-04-23T17:38:26.411Z,17.80
2019-04-23T17:41:01.929Z,22.20
2019-04-23T17:43:26.893Z,21.60
2019-04-23T17:48:52.901Z,19.40
2019-04-23T17:51:17.726Z,18.80
2019-04-23T17:53:50.146Z,19.00
2019-04-23T17:56:27.255Z,25.20
2019-04-23T17:58:52.273Z,30.20
2019-04-23T18:01:20.155Z,16.20
2019-04-23T18:03:57.384Z,17.80
2019-04-23T18:11:25.009Z,18.80
2019-04-23T18:13:57.120Z,22.00
2019-04-23T18:16:35.408Z,20.80
2019-04-23T18:19:03.455Z,19.20
2019-04-23T18:30:15.478Z,26.00
2019-04-23T18:35:34.005Z,19.40
2019-04-23T18:38:31.950Z,19.80
2019-04-23T18:44:16.310Z,24.40
2019-04-23T18:46:50.599Z,24.60
2019-04-23T18:52:06.923Z,21.80
2019-04-23T18:54:48.889Z,19.80
2019-04-23T18:57:48.550Z,22.20
2019-04-23T19:03:21.770Z,21.60
2019-04-23T19:06:15.005Z,24.00
2019-04-23T19:12:01.340Z,23.60
2019-04-23T19:17:36.033Z,16.00
2019-04-23T19:22:58.773Z,24.60
2019-04-23T19:25:14.519Z,18.60
2019-04-23T19:28:09.132Z,22.00
2019-04-23T19:31:16.300Z,21.40
2019-04-23T19:50:17.555Z,25.00
2019-04-23T19:52:57.411Z,21.60
2019-04-23T19:55:11.433Z,30.80
2019-04-23T19:57:42.360Z,24.80
2019-04-23T20:00:02.720Z,27.40
2019-04-23T20:03:11.105Z,22.00
2019-04-23T20:05:35.605Z,20.20
2019-04-23T20:08:27.820Z,21.00
2019-04-23T20:10:47.155Z,21.00
2019-04-23T20:13:41.111Z,24.60
2019-04-23T20:16:19.503Z,24.20
2019-04-23T20:18:42.868Z,28.40
2019-04-23T20:20:59.046Z,25.20
2019-04-23T20:31:44.984Z,17.80
2019-04-23T20:38:00.711Z,20.60
2019-04-23T20:40:08.673Z,28.80
2019-04-23T20:42:53.025Z,30.60
2019-04-23T20:48:16.051Z,28.60
2019-04-23T20:50:44.423Z,26.20
2019-04-23T20:53:31.028Z,27.40
2019-04-23T21:04:39.764Z,28.40
2019-04-23T21:06:59.166Z,22.00
2019-04-23T21:12:50.175Z,30.60
2019-04-23T21:17:38.450Z,31.40
2019-04-23T21:20:08.184Z,30.40
2019-04-23T21:28:26.649Z,28.80
2019-04-23T21:31:19.714Z,32.20
2019-04-23T21:33:46.129Z,30.20
2019-04-23T21:42:16.222Z,30.40
2019-04-23T21:44:47.545Z,34.20
2019-04-23T21:47:14.688Z,26.20
2019-04-23T21:49:57.972Z,32.20
2019-04-23T21:52:13.440Z,33.40
2019-04-23T21:57:46.406Z,34.20
2019-04-23T22:00:02.556Z,29.00
2019-04-23T22:03:02.567Z,28.00
2019-04-23T22:05:39.992Z,30.00
2019-04-23T22:10:26.184Z,24.00
2019-04-23T22:18:56.101Z,27.00
2019-04-23T22:24:07.194Z,32.40
2019-04-23T22:29:45.362Z,29.80
2019-04-23T22:32:15.107Z,32.80
2019-04-23T22:34:51.832Z,21.40
2019-04-23T22:40:02.633Z,28.40
2019-04-23T22:42:57.414Z,32.00
2019-04-23T22:45:21.055Z,30.00
2019-04-23T22:47:56.134Z,24.40
2019-04-23T22:50:47.271Z,21.80
2019-04-23T22:53:08.144Z,30.20
2019-04-23T22:55:49.412Z,26.60
2019-04-23T23:11:22.610Z,23.80
2019-04-23T23:16:46.561Z,17.00
2019-04-23T23:19:45.571Z,14.00
2019-04-23T23:22:18.467Z,17.20
2019-04-23T23:30:05.961Z,15.20
2019-04-23T23:32:31.305Z,20.60
2019-04-23T23:35:07.903Z,14.20
2019-04-23T23:37:42.122Z,13.40
2019-04-23T23:40:21.890Z,14.20
2019-04-23T23:45:40.864Z,18.60
2019-04-23T23:48:06.615Z,13.00
2019-04-23T23:53:12.325Z,15.40
2019-04-23T23:56:01.773Z,16.80
